createdAt,value
2023-02-11T00:02:15.222Z,75.11
2023-02-11T00:04:41.784Z,74.61
2023-02-11T00:07:08.306Z,65.43
2023-02-11T00:09:37.357Z,75.35
2023-02-11T00:12:04.408Z,75.44
2023-02-11T00:14:30.998Z,75.13
2023-02-11T00:16:57.594Z,74.87
2023-02-11T00:19:24.157Z,74.96
2023-02-11T00:21:50.668Z,74.91
2023-02-11T00:24:17.228Z,74.73
2023-02-11T00:26:45.161Z,74.85
2023-02-11T00:29:11.700Z,74.89
2023-02-11T00:31:38.374Z,74.31
2023-02-11T00:34:04.984Z,75.01
2023-02-11T00:36:31.559Z,74.92
2023-02-11T00:38:58.373Z,74.61
2023-02-11T00:41:25.980Z,68.61
2023-02-11T00:43:53.965Z,73.60
2023-02-11T00:46:21.144Z,76.63
2023-02-11T00:48:47.962Z,77.88
2023-02-11T00:51:14.621Z,75.67
2023-02-11T00:53:41.887Z,75.11
2023-02-11T00:56:08.954Z,75.01
2023-02-11T00:58:36.000Z,74.71
2023-02-11T01:01:04.777Z,71.35
2023-02-11T01:03:31.577Z,78.74
2023-02-11T01:05:58.143Z,76.34
2023-02-11T01:08:24.845Z,75.58
2023-02-11T01:10:56.504Z,75.15
2023-02-11T01:13:23.903Z,75.47
2023-02-11T01:15:51.017Z,74.69
2023-02-11T01:18:19.364Z,74.61
2023-02-11T01:20:45.965Z,75.06
2023-02-11T01:23:12.500Z,75.21
2023-02-11T01:25:39.070Z,74.50
2023-02-11T01:28:05.716Z,75.43
2023-02-11T01:30:34.235Z,62.65
2023-02-11T01:33:00.762Z,64.82
2023-02-11T01:35:28.664Z,77.91
2023-02-11T01:37:55.207Z,70.41
2023-02-11T01:40:21.857Z,77.34
2023-02-11T01:42:50.887Z,75.46
2023-02-11T01:45:51.342Z,75.12
2023-02-11T01:48:22.608Z,75.03
2023-02-11T01:50:54.867Z,75.14
2023-02-11T01:53:41.087Z,72.15
2023-02-11T01:56:37.488Z,75.40
2023-02-11T01:59:11.628Z,75.20
2023-02-11T02:01:40.556Z,74.15
2023-02-11T02:04:09.479Z,75.38
2023-02-11T02:06:43.701Z,74.51
2023-02-11T02:09:16.700Z,74.82
2023-02-11T02:11:43.381Z,75.17
2023-02-11T02:14:09.924Z,75.22
2023-02-11T02:16:37.645Z,75.20
2023-02-11T02:19:41.440Z,75.09
2023-02-11T02:22:55.473Z,74.30
2023-02-11T02:25:49.955Z,74.78
2023-02-11T02:28:36.794Z,74.83
2023-02-11T02:31:30.546Z,75.19
2023-02-11T02:34:02.381Z,75.27
2023-02-11T02:36:34.143Z,75.44
2023-02-11T02:39:07.907Z,75.18
2023-02-11T02:41:36.956Z,74.80
2023-02-11T02:44:03.918Z,74.88
2023-02-11T02:46:33.172Z,74.91
2023-02-11T02:49:01.380Z,75.72
2023-02-11T02:51:51.737Z,75.26
2023-02-11T02:54:47.550Z,75.27
2023-02-11T02:57:28.579Z,75.23
2023-02-11T03:00:08.179Z,74.91
2023-02-11T03:02:40.313Z,74.84
2023-02-11T03:05:16.119Z,74.71
2023-02-11T03:07:48.460Z,74.91
2023-02-11T03:10:19.334Z,75.24
2023-02-11T03:12:48.377Z,74.82
2023-02-11T03:15:17.443Z,74.61
2023-02-11T03:17:49.273Z,75.41
2023-02-11T03:20:20.448Z,75.13
2023-02-11T03:22:50.814Z,64.97
2023-02-11T03:25:17.788Z,78.84
2023-02-11T03:27:57.537Z,76.00
2023-02-11T03:30:27.410Z,75.49
2023-02-11T03:32:56.023Z,75.26
2023-02-11T03:35:32.143Z,75.45
2023-02-11T03:38:04.294Z,75.44
2023-02-11T03:40:35.184Z,74.78
2023-02-11T03:43:07.250Z,75.07
2023-02-11T03:45:36.109Z,75.13
2023-02-11T03:48:06.620Z,74.88
2023-02-11T03:50:37.205Z,74.71
2023-02-11T03:53:05.121Z,74.62
2023-02-11T03:55:34.922Z,71.48
2023-02-11T03:58:01.367Z,75.21
2023-02-11T04:00:30.984Z,76.10
2023-02-11T04:02:57.570Z,66.21
2023-02-11T04:05:24.141Z,78.61
2023-02-11T04:07:52.064Z,75.84
2023-02-11T04:10:18.754Z,75.21
2023-02-11T04:12:45.344Z,75.75
2023-02-11T04:15:11.884Z,75.05
2023-02-11T04:17:38.643Z,74.71
2023-02-11T04:20:05.951Z,69.56
2023-02-11T04:22:32.574Z,75.07
2023-02-11T04:25:00.424Z,74.69
2023-02-11T04:27:26.969Z,74.67
2023-02-11T04:29:54.100Z,75.32
2023-02-11T04:32:20.661Z,75.02
2023-02-11T04:34:47.504Z,74.36
2023-02-11T04:37:14.600Z,74.75
2023-02-11T04:39:41.274Z,75.20
2023-02-11T04:42:09.140Z,74.72
2023-02-11T04:44:35.697Z,71.99
2023-02-11T04:47:02.366Z,80.50
2023-02-11T04:49:29.096Z,76.64
2023-02-11T04:51:55.680Z,75.32
2023-02-11T04:54:22.443Z,75.22
2023-02-11T04:56:49.672Z,73.69
2023-02-11T04:59:17.578Z,75.77
2023-02-11T05:01:44.136Z,75.20
2023-02-11T05:04:10.756Z,75.67
2023-02-11T05:06:38.273Z,75.56
2023-02-11T05:09:04.845Z,65.49
2023-02-11T05:11:31.498Z,78.59
2023-02-11T05:13:58.057Z,75.84
2023-02-11T05:16:25.987Z,75.67
2023-02-11T05:18:53.702Z,75.39
2023-02-11T05:21:20.555Z,75.62
2023-02-11T05:23:47.303Z,75.56
2023-02-11T05:26:14.374Z,75.20
2023-02-11T05:28:41.569Z,75.37
2023-02-11T05:31:08.613Z,75.29
2023-02-11T05:33:36.706Z,75.78
2023-02-11T05:36:06.585Z,63.79
2023-02-11T05:38:33.812Z,73.69
2023-02-11T05:41:00.796Z,76.16
2023-02-11T05:43:27.361Z,75.61
2023-02-11T05:45:54.171Z,74.53
2023-02-11T05:48:20.949Z,75.40
2023-02-11T05:50:48.892Z,75.08
2023-02-11T05:53:15.446Z,75.01
2023-02-11T05:55:42.214Z,65.05
2023-02-11T05:58:08.930Z,75.53
2023-02-11T06:00:35.967Z,66.32
2023-02-11T06:03:04.328Z,76.06
2023-02-11T06:05:31.504Z,70.93
2023-02-11T06:07:59.790Z,75.46
2023-02-11T06:10:26.649Z,75.69
2023-02-11T06:12:53.260Z,75.18
2023-02-11T06:15:20.096Z,74.93
2023-02-11T06:17:46.627Z,75.54
2023-02-11T06:20:13.450Z,75.53
2023-02-11T06:22:40.062Z,75.06
2023-02-11T06:25:08.321Z,75.07
2023-02-11T06:27:34.834Z,75.62
2023-02-11T06:30:01.394Z,75.77
2023-02-11T06:32:44.026Z,74.96
2023-02-11T06:35:12.441Z,75.06
2023-02-11T06:37:39.144Z,75.41
2023-02-11T06:40:06.604Z,75.31
2023-02-11T06:42:36.075Z,75.26
2023-02-11T06:45:02.913Z,75.11
2023-02-11T06:47:29.460Z,75.14
2023-02-11T06:49:55.982Z,75.46
2023-02-11T06:52:22.582Z,74.80
2023-02-11T06:54:49.112Z,75.06
2023-02-11T06:57:15.697Z,75.46
2023-02-11T06:59:43.639Z,75.23
2023-02-11T07:02:10.802Z,75.21
2023-02-11T07:04:37.409Z,75.29
2023-02-11T07:07:03.984Z,67.10
2023-02-11T07:09:30.593Z,76.08
2023-02-11T07:11:57.142Z,75.44
2023-02-11T07:14:23.719Z,75.33
2023-02-11T07:16:51.752Z,73.46
2023-02-11T07:19:18.335Z,79.10
2023-02-11T07:21:44.882Z,72.33
2023-02-11T07:24:11.657Z,77.94
2023-02-11T07:26:38.414Z,76.18
2023-02-11T07:29:05.157Z,73.13
2023-02-11T07:31:32.327Z,72.54
2023-02-11T07:34:01.941Z,76.33
2023-02-11T07:36:30.516Z,75.81
2023-02-11T07:38:57.075Z,75.81
2023-02-11T07:41:25.146Z,70.52
2023-02-11T07:43:52.077Z,76.09
2023-02-11T07:46:20.500Z,75.82
2023-02-11T07:48:47.436Z,75.93
2023-02-11T07:51:17.165Z,75.67
2023-02-11T07:53:43.995Z,75.67
2023-02-11T07:56:12.157Z,76.27
2023-02-11T07:58:38.783Z,76.23
2023-02-11T08:01:06.953Z,75.71
2023-02-11T08:03:34.250Z,72.56
2023-02-11T08:06:04.073Z,74.92
2023-02-11T08:08:31.765Z,79.03
2023-02-11T08:10:58.352Z,78.58
2023-02-11T08:13:26.885Z,76.62
2023-02-11T08:15:57.645Z,76.71
2023-02-11T08:18:24.191Z,76.25
2023-02-11T08:20:50.963Z,75.35
2023-02-11T08:23:17.641Z,75.67
2023-02-11T08:25:45.526Z,75.65
2023-02-11T08:28:12.152Z,75.50
2023-02-11T08:30:38.794Z,76.29
2023-02-11T08:33:05.361Z,76.48
2023-02-11T08:35:33.118Z,76.23
2023-02-11T08:37:59.652Z,74.37
2023-02-11T08:40:26.180Z,76.66
2023-02-11T08:42:54.098Z,77.53
2023-02-11T08:45:20.680Z,76.09
2023-02-11T08:47:47.230Z,77.01
2023-02-11T08:50:13.844Z,75.95
2023-02-11T08:52:40.409Z,75.09
2023-02-11T08:55:07.402Z,77.35
2023-02-11T08:57:33.954Z,76.59
2023-02-11T09:00:01.956Z,76.37
2023-02-11T09:02:28.635Z,77.23
2023-02-11T09:04:55.505Z,77.03
2023-02-11T09:07:22.048Z,76.75
2023-02-11T09:09:48.614Z,77.10
2023-02-11T09:12:15.447Z,76.49
2023-02-11T09:14:42.959Z,73.41
2023-02-11T09:17:10.846Z,73.54
2023-02-11T09:19:37.436Z,75.29
2023-02-11T09:22:04.000Z,75.26
2023-02-11T09:24:30.541Z,76.10
2023-02-11T09:26:57.283Z,76.39
2023-02-11T09:29:23.887Z,79.74
2023-02-11T09:31:50.622Z,77.26
2023-02-11T09:34:18.632Z,72.67
2023-02-11T09:36:45.162Z,72.87
2023-02-11T09:39:13.819Z,66.83
2023-02-11T09:42:07.819Z,69.52
2023-02-11T09:44:37.028Z,56.22
2023-02-11T09:47:06.236Z,63.92
2023-02-11T09:49:40.817Z,66.34
2023-02-11T09:52:16.558Z,69.82
2023-02-11T09:54:53.604Z,74.29
2023-02-11T09:57:28.479Z,69.79
2023-02-11T09:59:56.713Z,67.02
2023-02-11T10:02:28.429Z,66.78
2023-02-11T10:05:17.515Z,61.33
2023-02-11T10:07:51.428Z,66.77
2023-02-11T10:10:32.219Z,72.19
2023-02-11T10:13:17.194Z,66.34
2023-02-11T10:15:50.979Z,71.46
2023-02-11T10:18:46.357Z,71.74
2023-02-11T10:21:24.826Z,68.33
2023-02-11T10:23:56.175Z,62.14
2023-02-11T10:26:23.559Z,64.14
2023-02-11T10:28:54.284Z,68.88
2023-02-11T10:31:25.211Z,62.84
2023-02-11T10:33:58.344Z,59.34
2023-02-11T10:36:29.799Z,60.81
2023-02-11T10:38:59.104Z,65.56
2023-02-11T10:41:31.067Z,62.14
2023-02-11T10:43:59.527Z,59.68
2023-02-11T10:46:31.031Z,59.02
2023-02-11T10:48:57.759Z,58.61
2023-02-11T10:51:28.299Z,64.88
2023-02-11T10:54:14.334Z,65.55
2023-02-11T10:56:46.152Z,60.21
2023-02-11T10:59:19.759Z,54.21
2023-02-11T11:01:50.809Z,55.24
2023-02-11T11:04:34.630Z,54.06
2023-02-11T11:07:14.393Z,53.02
2023-02-11T11:09:44.936Z,52.56
2023-02-11T11:12:25.212Z,56.10
2023-02-11T11:14:55.461Z,57.01
2023-02-11T11:17:22.175Z,60.19
2023-02-11T11:19:48.737Z,57.21
2023-02-11T11:22:22.284Z,53.26
2023-02-11T11:24:54.378Z,63.56
2023-02-11T11:27:25.374Z,59.85
2023-02-11T11:29:54.770Z,65.66
2023-02-11T11:32:24.110Z,65.09
2023-02-11T11:34:53.952Z,53.44
2023-02-11T11:37:24.620Z,54.02
2023-02-11T11:39:57.025Z,52.06
2023-02-11T11:42:28.585Z,57.39
2023-02-11T11:44:58.368Z,62.02
2023-02-11T11:47:30.365Z,63.42
2023-02-11T11:50:25.012Z,67.66
2023-02-11T11:53:00.153Z,61.38
2023-02-11T11:55:31.273Z,55.93
2023-02-11T11:57:58.563Z,54.33
2023-02-11T12:00:32.305Z,60.50
2023-02-11T12:03:20.224Z,55.90
2023-02-11T12:05:58.714Z,53.63
2023-02-11T12:08:38.814Z,53.29
2023-02-11T12:11:13.898Z,54.43
2023-02-11T12:13:53.150Z,54.28
2023-02-11T12:16:30.632Z,61.08
2023-02-11T12:19:27.076Z,61.08
2023-02-11T12:22:09.430Z,58.74
2023-02-11T12:24:51.548Z,60.91
2023-02-11T12:27:25.844Z,66.48
2023-02-11T12:30:03.501Z,60.33
2023-02-11T12:32:43.207Z,56.28
2023-02-11T12:35:31.036Z,55.37
2023-02-11T12:38:21.151Z,55.46
2023-02-11T12:41:01.233Z,54.13
2023-02-11T12:43:35.859Z,52.97
2023-02-11T12:46:32.389Z,54.13
2023-02-11T12:49:17.559Z,51.38
2023-02-11T12:51:59.398Z,51.55
2023-02-11T12:54:30.287Z,54.92
2023-02-11T12:57:02.721Z,59.44
2023-02-11T12:59:40.587Z,67.25
2023-02-11T13:02:18.798Z,67.92
2023-02-11T13:04:49.956Z,57.01
2023-02-11T13:07:22.801Z,56.05
2023-02-11T13:09:53.904Z,62.74
2023-02-11T13:12:40.819Z,65.10
2023-02-11T13:15:12.971Z,64.64
2023-02-11T13:17:49.070Z,66.71
2023-02-11T13:20:26.180Z,66.00
2023-02-11T13:22:59.227Z,64.30
2023-02-11T13:25:32.019Z,62.14
2023-02-11T13:28:11.352Z,57.32
2023-02-11T13:30:47.001Z,55.46
2023-02-11T13:33:20.530Z,54.69
2023-02-11T13:36:12.076Z,54.74
2023-02-11T13:38:39.255Z,60.11
2023-02-11T13:41:15.758Z,55.94
2023-02-11T13:43:44.519Z,65.38
2023-02-11T13:46:13.524Z,70.09
2023-02-11T13:48:47.487Z,67.01
2023-02-11T13:51:16.911Z,59.01
2023-02-11T13:53:50.271Z,66.44
2023-02-11T13:56:28.115Z,59.21
2023-02-11T13:58:57.935Z,57.34
2023-02-11T14:02:29.483Z,50.08
2023-02-11T14:05:21.350Z,54.43
2023-02-11T14:08:32.422Z,50.86
2023-02-11T14:11:00.908Z,54.09
2023-02-11T14:13:29.589Z,49.65
2023-02-11T14:16:09.006Z,55.96
2023-02-11T14:18:58.309Z,57.86
2023-02-11T14:21:33.197Z,64.48
2023-02-11T14:24:33.328Z,70.45
2023-02-11T14:27:05.319Z,71.89
2023-02-11T14:29:39.283Z,63.64
2023-02-11T14:32:16.304Z,68.20
2023-02-11T14:34:52.459Z,71.88
2023-02-11T14:37:30.362Z,71.05
2023-02-11T14:40:07.259Z,56.60
2023-02-11T14:42:37.855Z,58.45
2023-02-11T14:45:07.698Z,59.94
2023-02-11T14:47:40.262Z,48.50
2023-02-11T14:50:14.283Z,54.13
2023-02-11T14:52:43.458Z,48.78
2023-02-11T14:55:18.534Z,56.61
2023-02-11T14:57:45.721Z,65.30
2023-02-11T15:00:18.726Z,69.95
2023-02-11T15:02:47.065Z,70.99
2023-02-11T15:05:16.339Z,72.32
2023-02-11T15:07:45.496Z,72.55
2023-02-11T15:10:18.418Z,72.63
2023-02-11T15:12:49.539Z,68.00
2023-02-11T15:15:17.059Z,55.83
2023-02-11T15:17:44.281Z,54.17
2023-02-11T15:20:20.574Z,56.75
2023-02-11T15:22:56.206Z,65.49
2023-02-11T15:25:23.948Z,67.86
2023-02-11T15:27:52.267Z,68.32
2023-02-11T15:30:30.729Z,66.19
2023-02-11T15:32:59.996Z,65.51
2023-02-11T15:35:30.494Z,64.29
2023-02-11T15:37:58.510Z,67.64
2023-02-11T15:40:27.882Z,65.11
2023-02-11T15:42:58.495Z,64.36
2023-02-11T15:45:29.481Z,65.32
2023-02-11T15:48:00.097Z,67.15
2023-02-11T15:50:30.865Z,70.90
2023-02-11T15:53:00.371Z,72.82
2023-02-11T15:55:28.879Z,72.87
2023-02-11T15:57:57.550Z,68.24
2023-02-11T16:00:28.925Z,69.16
2023-02-11T16:02:55.944Z,70.92
2023-02-11T16:05:29.275Z,70.76
2023-02-11T16:07:56.940Z,71.05
2023-02-11T16:10:26.462Z,68.96
2023-02-11T16:12:58.013Z,71.24
2023-02-11T16:16:02.336Z,70.18
2023-02-11T16:18:38.604Z,71.20
2023-02-11T16:21:15.795Z,70.55
2023-02-11T16:23:43.760Z,72.79
2023-02-11T16:26:19.641Z,73.94
2023-02-11T16:28:46.649Z,74.16
2023-02-11T16:31:13.642Z,68.22
2023-02-11T16:33:40.221Z,72.69
2023-02-11T16:36:13.324Z,70.97
2023-02-11T16:38:40.055Z,73.58
2023-02-11T16:41:06.653Z,73.15
2023-02-11T16:43:33.208Z,72.94
2023-02-11T16:45:59.752Z,74.10
2023-02-11T16:48:26.440Z,74.88
2023-02-11T16:50:53.746Z,74.36
2023-02-11T16:53:25.072Z,74.51
2023-02-11T16:55:52.937Z,75.67
2023-02-11T16:58:19.537Z,75.36
2023-02-11T17:00:47.369Z,66.67
2023-02-11T17:03:18.175Z,74.70
2023-02-11T17:05:55.305Z,75.68
2023-02-11T17:08:23.724Z,74.48
2023-02-11T17:10:50.654Z,75.19
2023-02-11T17:13:17.365Z,75.93
2023-02-11T17:15:43.950Z,75.66
2023-02-11T17:18:13.165Z,75.92
2023-02-11T17:20:39.873Z,73.97
2023-02-11T17:23:06.441Z,75.87
2023-02-11T17:25:34.343Z,75.31
2023-02-11T17:28:00.928Z,75.64
2023-02-11T17:30:27.560Z,75.60
2023-02-11T17:32:54.147Z,67.04
2023-02-11T17:35:21.043Z,70.62
2023-02-11T17:37:47.674Z,70.65
2023-02-11T17:40:14.626Z,74.36
2023-02-11T17:42:42.905Z,75.33
2023-02-11T17:45:10.185Z,76.09
2023-02-11T17:47:36.744Z,68.84
2023-02-11T17:50:04.041Z,73.99
2023-02-11T17:52:30.664Z,68.00
2023-02-11T17:54:58.062Z,73.13
2023-02-11T17:57:24.630Z,76.10
2023-02-11T17:59:52.570Z,75.51
2023-02-11T18:02:19.355Z,66.59
2023-02-11T18:04:46.075Z,76.15
2023-02-11T18:07:12.678Z,76.01
2023-02-11T18:09:40.251Z,76.30
2023-02-11T18:12:07.364Z,67.33
2023-02-11T18:14:34.010Z,69.03
2023-02-11T18:17:01.977Z,76.12
2023-02-11T18:19:30.561Z,75.81
2023-02-11T18:21:59.721Z,67.87
2023-02-11T18:24:27.509Z,69.22
2023-02-11T18:26:54.103Z,76.13
2023-02-11T18:29:20.704Z,76.28
2023-02-11T18:31:47.277Z,76.13
2023-02-11T18:34:15.862Z,76.17
2023-02-11T18:36:42.674Z,76.13
2023-02-11T18:39:09.356Z,75.50
2023-02-11T18:41:35.966Z,73.87
2023-02-11T18:44:03.325Z,75.64
2023-02-11T18:46:31.160Z,75.64
2023-02-11T18:48:57.748Z,75.44
2023-02-11T18:51:25.799Z,75.88
2023-02-11T18:53:52.876Z,67.61
2023-02-11T18:56:21.708Z,76.12
2023-02-11T18:58:49.047Z,75.82
2023-02-11T19:01:17.832Z,75.96
2023-02-11T19:03:45.079Z,68.11
2023-02-11T19:06:15.659Z,75.76
2023-02-11T19:08:43.782Z,75.61
2023-02-11T19:11:10.411Z,75.20
2023-02-11T19:13:36.937Z,75.49
2023-02-11T19:16:08.169Z,75.08
2023-02-11T19:18:36.263Z,75.44
2023-02-11T19:21:07.177Z,75.40
2023-02-11T19:23:34.200Z,75.04
2023-02-11T19:26:04.479Z,75.49
2023-02-11T19:28:31.187Z,75.39
2023-02-11T19:30:58.178Z,75.56
2023-02-11T19:33:24.822Z,70.61
2023-02-11T19:35:51.600Z,75.58
2023-02-11T19:38:19.079Z,74.04
2023-02-11T19:40:45.609Z,76.87
2023-02-11T19:43:13.487Z,75.90
2023-02-11T19:45:40.049Z,75.64
2023-02-11T19:48:06.565Z,75.47
2023-02-11T19:50:33.519Z,74.62
2023-02-11T19:53:02.368Z,75.73
2023-02-11T19:55:29.003Z,75.67
2023-02-11T19:57:55.548Z,75.90
2023-02-11T20:00:23.740Z,75.84
2023-02-11T20:02:50.406Z,75.78
2023-02-11T20:05:17.104Z,75.86
2023-02-11T20:07:43.620Z,75.65
2023-02-11T20:10:10.483Z,75.81
2023-02-11T20:12:37.251Z,75.81
2023-02-11T20:15:04.328Z,67.21
2023-02-11T20:17:32.204Z,76.96
2023-02-11T20:19:58.842Z,76.56
2023-02-11T20:22:25.455Z,75.83
2023-02-11T20:24:52.017Z,76.20
2023-02-11T20:27:20.113Z,75.97
2023-02-11T20:29:46.871Z,75.99
2023-02-11T20:32:14.661Z,76.02
2023-02-11T20:34:42.565Z,76.01
2023-02-11T20:37:10.357Z,75.95
2023-02-11T20:39:40.811Z,75.82
2023-02-11T20:42:09.647Z,76.12
2023-02-11T20:44:36.695Z,75.66
2023-02-11T20:47:03.381Z,75.62
2023-02-11T20:49:30.413Z,75.60
2023-02-11T20:51:58.465Z,76.00
2023-02-11T20:54:25.776Z,75.85
2023-02-11T20:56:58.105Z,75.91
2023-02-11T20:59:25.339Z,75.85
2023-02-11T21:01:55.101Z,72.04
2023-02-11T21:04:24.287Z,76.01
2023-02-11T21:06:53.256Z,68.62
2023-02-11T21:09:23.387Z,77.17
2023-02-11T21:11:51.694Z,76.42
2023-02-11T21:14:19.208Z,73.51
2023-02-11T21:16:46.179Z,75.74
2023-02-11T21:19:13.124Z,75.78
2023-02-11T21:21:39.928Z,75.90
2023-02-11T21:24:07.696Z,76.01
2023-02-11T21:26:36.552Z,75.64
2023-02-11T21:29:03.308Z,75.73
2023-02-11T21:31:32.293Z,75.85
2023-02-11T21:33:59.552Z,75.93
2023-02-11T21:36:27.571Z,75.80
2023-02-11T21:38:54.623Z,75.91
2023-02-11T21:41:22.456Z,76.10
2023-02-11T21:43:50.812Z,76.00
2023-02-11T21:46:18.205Z,75.55
2023-02-11T21:48:44.972Z,75.49
2023-02-11T21:51:14.116Z,75.68
2023-02-11T21:53:40.711Z,75.61
2023-02-11T21:56:10.011Z,73.41
2023-02-11T21:58:36.840Z,76.52
2023-02-11T22:01:12.153Z,75.90
2023-02-11T22:03:38.774Z,75.68
2023-02-11T22:06:07.446Z,76.11
2023-02-11T22:08:34.035Z,75.96
2023-02-11T22:11:02.591Z,75.60
2023-02-11T22:13:29.210Z,75.61
2023-02-11T22:15:59.567Z,74.21
2023-02-11T22:18:27.900Z,69.00
2023-02-11T22:20:58.571Z,78.35
2023-02-11T22:23:25.109Z,76.67
2023-02-11T22:25:51.637Z,76.18
2023-02-11T22:28:18.272Z,76.07
2023-02-11T22:30:44.873Z,75.81
2023-02-11T22:33:11.415Z,76.01
2023-02-11T22:35:39.251Z,75.92
2023-02-11T22:38:05.864Z,66.76
2023-02-11T22:40:32.393Z,75.64
2023-02-11T22:42:58.990Z,76.63
2023-02-11T22:45:25.583Z,75.96
2023-02-11T22:47:54.082Z,76.05
2023-02-11T22:50:20.613Z,75.80
2023-02-11T22:52:48.489Z,75.95
2023-02-11T22:55:15.255Z,75.73
2023-02-11T22:57:41.857Z,75.69
2023-02-11T23:00:11.616Z,75.95
2023-02-11T23:02:38.059Z,75.94
2023-02-11T23:05:04.742Z,75.99
2023-02-11T23:07:31.296Z,76.05
2023-02-11T23:09:59.281Z,70.92
2023-02-11T23:12:26.944Z,76.38
2023-02-11T23:14:53.504Z,76.24
2023-02-11T23:17:20.036Z,75.90
2023-02-11T23:19:46.783Z,76.07
2023-02-11T23:22:13.314Z,76.04
2023-02-11T23:24:39.857Z,76.02
2023-02-11T23:27:07.784Z,76.00
2023-02-11T23:29:34.328Z,76.15
2023-02-11T23:32:00.902Z,75.88
2023-02-11T23:34:27.506Z,75.89
2023-02-11T23:36:54.775Z,76.01
2023-02-11T23:39:21.449Z,76.01
2023-02-11T23:41:48.051Z,76.03
2023-02-11T23:44:15.981Z,76.07
2023-02-11T23:46:42.594Z,76.01
2023-02-11T23:49:09.262Z,75.84
2023-02-11T23:51:35.791Z,76.12
2023-02-11T23:54:03.144Z,75.88
2023-02-11T23:56:29.692Z,75.97
2023-02-11T23:58:59.395Z,76.16
